Time;durP1;ratioP1;P1;durP2;ratioP2;P2;SDS_P1;SDS_P2;PMS_P1;PMS_P2;Temp;Humidity;BMP_temperature;BMP_pressure;BME280_temperature;BME280_humidity;BME280_pressure;Samples;Min_cycle;Max_cycle;Signal;HPM_P1;HPM_P2
2023/03/27 00:00:45;;;;;;;7.22;1.20;;;;;;;;;;5073993;28;20759;-57
2023/03/27 00:03:13;;;;;;;6.82;1.15;;;1.90;99.90;;;;;;5073251;28;20055;-56
2023/03/27 00:05:39;;;;;;;6.75;1.98;;;;;;;;;;5072985;28;20040;-56
2023/03/27 00:08:08;;;;;;;10.68;1.33;;;1.90;99.90;;;;;;5073141;28;20089;-57
2023/03/27 00:10:35;;;;;;;9.85;0.95;;;1.90;99.90;;;;;;5072986;28;20505;-57
2023/03/27 00:13:02;;;;;;;10.25;1.15;;;;;;;;;;5073293;28;20047;-56
2023/03/27 00:15:32;;;;;;;8.50;1.05;;;1.90;99.90;;;;;;5074281;28;20105;-57
2023/03/27 00:18:02;;;;;;;8.98;1.42;;;;;;;;;;5074394;28;20055;-57
2023/03/27 00:20:29;;;;;;;3.92;0.80;;;;;;;;;;5073711;28;20040;-56
2023/03/27 00:22:55;;;;;;;6.78;0.95;;;;;;;;;;5072341;28;20646;-56
2023/03/27 00:25:23;;;;;;;5.93;1.02;;;2.00;99.90;;;;;;5071590;28;20040;-56
2023/03/27 00:27:50;;;;;;;6.10;1.10;;;;;;;;;;5070556;28;21194;-56
2023/03/27 00:30:16;;;;;;;8.27;1.27;;;;;;;;;;5072253;28;20105;-56
2023/03/27 00:32:43;;;;;;;9.63;1.25;;;;;;;;;;5071786;28;20044;-57
2023/03/27 00:35:09;;;;;;;7.22;1.92;;;1.80;99.90;;;;;;5071134;28;20453;-56
2023/03/27 00:37:38;;;;;;;8.18;1.05;;;1.80;99.90;;;;;;5071224;28;20077;-56
2023/03/27 00:40:13;;;;;;;9.75;1.08;;;1.90;99.90;;;;;;5074948;28;20035;-57
2023/03/27 00:42:39;;;;;;;10.18;1.10;;;;;;;;;;5075369;28;20039;-56
2023/03/27 00:45:05;;;;;;;5.28;0.85;;;;;;;;;;5075506;28;20079;-57
2023/03/27 00:47:34;;;;;;;10.15;1.35;;;1.70;99.90;;;;;;5076697;28;20055;-57
2023/03/27 00:50:11;;;;;;;6.07;0.82;;;1.90;99.90;;;;;;5075630;28;20043;-56
2023/03/27 00:52:43;;;;;;;7.35;1.27;;;1.80;99.90;;;;;;5076214;28;20424;-57
2023/03/27 00:55:13;;;;;;;;;;;2.00;99.90;;;;;;5075594;28;20047;-56
2023/03/27 00:57:43;;;;;;;11.40;2.20;;;2.00;99.90;;;;;;5075915;28;20637;-57
2023/03/27 01:00:13;;;;;;;8.55;0.95;;;2.00;99.90;;;;;;5076080;28;20044;-57
2023/03/27 01:02:45;;;;;;;9.98;2.25;;;1.90;99.90;;;;;;5075912;28;20155;-55
2023/03/27 01:05:11;;;;;;;7.63;1.02;;;1.90;99.90;;;;;;5074951;28;20048;-57
2023/03/27 01:07:38;;;;;;;7.95;0.98;;;;;;;;;;5075114;28;20063;-57
2023/03/27 01:10:06;;;;;;;10.40;1.10;;;1.70;99.90;;;;;;5075022;28;20055;-56
2023/03/27 01:12:45;;;;;;;7.63;1.52;;;1.80;99.90;;;;;;5074623;28;20127;-57
2023/03/27 01:15:25;;;;;;;11.48;1.45;;;1.90;99.90;;;;;;5075803;28;20040;-56
2023/03/27 01:18:24;;;;;;;14.57;2.33;;;1.80;99.90;;;;;;5074424;28;20040;-57
2023/03/27 01:21:15;;;;;;;7.68;1.10;;;1.80;99.90;;;;;;5075572;28;20044;-57
2023/03/27 01:24:19;;;;;;;12.27;1.20;;;1.80;99.90;;;;;;5075610;28;20041;-57
2023/03/27 01:26:56;;;;;;;9.80;1.10;;;1.90;99.90;;;;;;5074206;28;20040;-56
2023/03/27 01:29:31;;;;;;;9.98;1.95;;;1.80;99.90;;;;;;5076231;28;20061;-57
2023/03/27 01:32:31;;;;;;;8.30;1.67;;;1.80;99.90;;;;;;5074823;28;20143;-56
2023/03/27 01:35:28;;;;;;;7.22;1.35;;;1.90;99.90;;;;;;5073565;28;20044;-56
2023/03/27 01:38:21;;;;;;;10.45;2.42;;;1.80;99.90;;;;;;5074552;28;20043;-56
2023/03/27 01:40:47;;;;;;;8.23;1.20;;;;;;;;;;5074840;28;20051;-57
2023/03/27 01:43:20;;;;;;;9.20;1.10;;;1.70;99.90;;;;;;5075853;28;20036;-57
2023/03/27 01:46:04;;;;;;;9.57;1.30;;;1.80;99.90;;;;;;5075522;28;20516;-56
2023/03/27 01:48:43;;;;;;;10.23;1.75;;;1.90;99.90;;;;;;5075153;28;20825;-57
2023/03/27 01:51:27;;;;;;;9.88;1.23;;;2.00;99.90;;;;;;5074280;28;20050;-57
2023/03/27 01:53:59;;;;;;;6.85;1.30;;;2.00;99.90;;;;;;5075318;28;20048;-57
2023/03/27 01:56:31;;;;;;;10.85;1.17;;;1.90;99.90;;;;;;5075136;28;20569;-57
2023/03/27 01:59:07;;;;;;;8.38;1.35;;;1.90;99.90;;;;;;5075753;28;20036;-57
2023/03/27 02:01:38;;;;;;;8.70;1.13;;;1.80;99.90;;;;;;5074662;28;20572;-57
2023/03/27 02:04:08;;;;;;;11.50;1.73;;;1.70;99.90;;;;;;5071845;28;21608;-57
2023/03/27 02:06:40;;;;;;;8.07;1.08;;;1.80;99.90;;;;;;5073121;28;20524;-56
2023/03/27 02:09:41;;;;;;;7.53;1.00;;;1.90;99.90;;;;;;5074064;28;20032;-57
2023/03/27 02:12:14;;;;;;;11.48;1.60;;;2.00;99.90;;;;;;5069740;28;20060;-56
2023/03/27 02:15:07;;;;;;;9.40;1.05;;;2.10;99.90;;;;;;5074167;28;20043;-56
2023/03/27 02:17:38;;;;;;;8.45;1.30;;;2.00;99.90;;;;;;5074174;28;20497;-57
2023/03/27 02:20:15;;;;;;;8.95;1.05;;;2.10;99.90;;;;;;5073547;28;20098;-57
2023/03/27 02:22:42;;;;;;;6.25;1.30;;;2.40;99.90;;;;;;5072845;28;20087;-57
2023/03/27 02:25:34;;;;;;;9.18;2.13;;;2.50;99.90;;;;;;5072444;28;20052;-56
2023/03/27 02:28:28;;;;;;;13.55;2.25;;;2.40;99.90;;;;;;5073125;28;20052;-56
2023/03/27 02:31:05;;;;;;;9.93;1.20;;;2.40;99.90;;;;;;5073550;28;20040;-57
2023/03/27 02:33:55;;;;;;;6.55;1.10;;;2.20;99.90;;;;;;5074060;28;20051;-57
2023/03/27 02:37:00;;;;;;;11.50;2.20;;;2.40;99.90;;;;;;5074189;28;20048;-57
2023/03/27 02:39:48;;;;;;;16.13;2.13;;;2.40;99.90;;;;;;5072572;28;20523;-56
2023/03/27 02:42:21;;;;;;;18.10;3.15;;;2.30;99.90;;;;;;5072939;28;20055;-56
2023/03/27 02:45:12;;;;;;;13.75;2.95;;;2.40;99.90;;;;;;5073122;28;20039;-67
2023/03/27 02:47:39;;;;;;;12.00;2.20;;;;;;;;;;5073696;28;20592;-57
2023/03/27 02:50:14;;;;;;;11.13;1.90;;;2.20;99.90;;;;;;5072416;28;20178;-57
2023/03/27 02:52:46;;;;;;;11.60;1.90;;;2.20;99.90;;;;;;5073770;28;20122;-56
2023/03/27 02:55:20;;;;;;;8.23;2.22;;;2.00;99.90;;;;;;5073351;28;20098;-57
2023/03/27 02:57:50;;;;;;;18.42;2.17;;;2.10;99.90;;;;;;5072130;28;20182;-57
2023/03/27 03:00:24;;;;;;;8.18;1.70;;;2.00;99.90;;;;;;5073479;28;20369;-57
2023/03/27 03:03:04;;;;;;;15.00;2.40;;;2.10;99.90;;;;;;5087678;28;20044;-57
2023/03/27 03:05:31;;;;;;;9.75;1.70;;;2.00;99.90;;;;;;5073768;28;20116;-57
2023/03/27 03:07:57;;;;;;;9.45;2.28;;;;;;;;;;5073145;28;20039;-56
2023/03/27 03:10:24;;;;;;;10.70;2.10;;;;;;;;;;5073152;28;20082;-57
2023/03/27 03:12:50;;;;;;;9.43;1.42;;;;;;;;;;5071958;28;20257;-57
2023/03/27 03:15:17;;;;;;;9.30;1.73;;;;;;;;;;5074775;28;20036;-57
2023/03/27 03:17:44;;;;;;;9.73;2.00;;;2.00;99.90;;;;;;5073941;28;20128;-59
2023/03/27 03:20:11;;;;;;;14.32;3.05;;;2.00;99.90;;;;;;5072709;28;20051;-57
2023/03/27 03:22:38;;;;;;;13.32;1.42;;;;;;;;;;5073535;28;20089;-56
2023/03/27 03:25:06;;;;;;;10.10;2.13;;;2.00;99.90;;;;;;5072098;28;20119;-56
2023/03/27 03:27:33;;;;;;;8.70;1.80;;;;;;;;;;5073870;28;20837;-57
2023/03/27 03:29:59;;;;;;;9.75;1.45;;;1.90;99.90;;;;;;5074470;28;20055;-56
2023/03/27 03:32:26;;;;;;;9.65;1.83;;;;;;;;;;5072523;28;20110;-56
2023/03/27 03:34:52;;;;;;;14.80;1.73;;;;;;;;;;5071985;28;20142;-56
2023/03/27 03:37:19;;;;;;;8.95;1.65;;;;;;;;;;5072226;28;20058;-56
2023/03/27 03:39:45;;;;;;;11.68;2.00;;;;;;;;;;5072834;28;20092;-57
2023/03/27 03:42:12;;;;;;;5.57;1.30;;;;;;;;;;5072232;28;20036;-57
2023/03/27 03:44:38;;;;;;;12.27;1.75;;;;;;;;;;5072000;28;20051;-57
2023/03/27 03:47:04;;;;;;;11.90;1.80;;;;;;;;;;5071747;28;20116;-56
2023/03/27 03:49:30;;;;;;;7.72;1.42;;;;;;;;;;5071876;28;20036;-57
2023/03/27 03:51:56;;;;;;;7.82;2.50;;;;;;;;;;5071528;28;20040;-57
2023/03/27 03:54:22;;;;;;;8.18;2.22;;;;;;;;;;5071463;28;20028;-56
2023/03/27 03:56:48;;;;;;;13.93;1.63;;;;;;;;;;5071350;28;20040;-57
2023/03/27 03:59:15;;;;;;;12.90;2.22;;;;;;;;;;5072312;28;20132;-56
2023/03/27 04:01:41;;;;;;;10.98;1.65;;;;;;;;;;5073090;28;20040;-57
2023/03/27 04:04:08;;;;;;;7.20;1.60;;;;;;;;;;5071653;28;20185;-57
2023/03/27 04:06:36;;;;;;;9.43;1.60;;;;;;;;;;5071356;28;20466;-57
2023/03/27 04:09:03;;;;;;;11.50;1.63;;;;;;;;;;5071647;28;20613;-57
2023/03/27 04:11:29;;;;;;;6.55;1.60;;;;;;;;;;5072248;28;20052;-57
2023/03/27 04:13:55;;;;;;;9.35;1.70;;;;;;;;;;5072190;28;20046;-56
2023/03/27 04:16:21;;;;;;;7.03;1.40;;;;;;;;;;5071736;28;20040;-56
2023/03/27 04:18:49;;;;;;;9.82;1.45;;;;;;;;;;5070959;28;20040;-57
2023/03/27 04:21:16;;;;;;;9.77;2.15;;;1.90;99.90;;;;;;5072030;28;20040;-57
2023/03/27 04:23:44;;;;;;;6.60;1.58;;;1.90;99.90;;;;;;5072147;28;20993;-56
2023/03/27 04:26:10;;;;;;;8.82;1.85;;;;;;;;;;5072257;28;20504;-57
2023/03/27 04:28:37;;;;;;;9.70;1.88;;;;;;;;;;5071538;28;20797;-56
2023/03/27 04:31:05;;;;;;;7.90;1.95;;;2.00;99.90;;;;;;5072781;28;20039;-57
2023/03/27 04:33:38;;;;;;;15.38;2.97;;;1.80;99.90;;;;;;5072878;28;20047;-57
2023/03/27 04:36:05;;;;;;;8.35;1.60;;;2.00;99.90;;;;;;5071234;28;20147;-57
2023/03/27 04:38:32;;;;;;;10.05;2.00;;;;;;;;;;5071609;28;20048;-56
2023/03/27 04:40:58;;;;;;;10.35;3.45;;;;;;;;;;5073649;28;20048;-57
2023/03/27 04:43:24;;;;;;;9.85;2.30;;;;;;;;;;5072443;28;20131;-57
2023/03/27 04:45:52;;;;;;;10.23;1.90;;;;;;;;;;5072080;28;20048;-57
2023/03/27 04:48:18;;;;;;;10.77;1.60;;;;;;;;;;5072021;28;20056;-57
2023/03/27 04:50:48;;;;;;;8.32;1.88;;;2.00;99.90;;;;;;5072474;28;20728;-57
2023/03/27 04:53:14;;;;;;;10.23;2.35;;;;;;;;;;5073327;28;20123;-57
2023/03/27 04:55:40;;;;;;;9.95;1.35;;;;;;;;;;5072598;28;20109;-57
2023/03/27 04:58:07;;;;;;;9.32;1.17;;;;;;;;;;5072093;28;20040;-57
2023/03/27 05:00:33;;;;;;;5.93;1.20;;;;;;;;;;5072708;28;20044;-57
2023/03/27 05:03:02;;;;;;;6.22;0.90;;;;;;;;;;5073079;28;20044;-57
2023/03/27 05:05:28;;;;;;;4.70;0.77;;;;;;;;;;5072635;28;20051;-55
2023/03/27 05:07:55;;;;;;;6.53;0.90;;;;;;;;;;5071093;28;20370;-57
2023/03/27 05:10:21;;;;;;;7.45;0.77;;;;;;;;;;5071447;28;20040;-57
2023/03/27 05:12:48;;;;;;;6.13;1.42;;;4.10;99.90;;;;;;5072296;28;20131;-57
2023/03/27 05:15:16;;;;;;;10.30;0.93;;;2.30;99.90;;;;;;5070246;28;20055;-57
2023/03/27 05:17:44;;;;;;;8.55;1.00;;;2.00;99.90;;;;;;5070437;28;20392;-57
2023/03/27 05:20:13;;;;;;;4.03;0.88;;;2.40;99.90;;;;;;5070444;28;20350;-57
2023/03/27 05:22:39;;;;;;;7.72;0.80;;;;;;;;;;5070769;28;20044;-56
2023/03/27 05:25:06;;;;;;;7.93;0.98;;;2.10;99.90;;;;;;5072938;28;20722;-56
2023/03/27 05:27:32;;;;;;;6.95;1.30;;;;;;;;;;5075495;28;24452;-58
2023/03/27 05:29:58;;;;;;;9.75;2.25;;;;;;;;;;5074907;28;20059;-57
2023/03/27 05:32:24;;;;;;;7.47;1.25;;;;;;;;;;5075471;28;20450;-59
2023/03/27 05:34:53;;;;;;;6.05;1.33;;;;;;;;;;5074053;28;20369;-57
2023/03/27 05:37:20;;;;;;;8.05;1.70;;;1.80;99.90;;;;;;5074309;28;20040;-56
2023/03/27 05:39:46;;;;;;;5.82;1.33;;;;;;;;;;5074120;28;20052;-57
2023/03/27 05:42:15;;;;;;;4.07;1.00;;;;;;;;;;5075099;28;20050;-56
2023/03/27 05:44:42;;;;;;;7.50;1.33;;;1.80;99.90;;;;;;5073768;28;20048;-57
2023/03/27 05:47:09;;;;;;;5.95;1.80;;;;;;;;;;5073550;28;20068;-56
2023/03/27 05:49:35;;;;;;;9.98;3.95;;;;;;;;;;5073379;28;20036;-56
2023/03/27 05:52:02;;;;;;;8.38;2.22;;;;;;;;;;5075037;28;20120;-57
2023/03/27 05:54:28;;;;;;;9.00;1.95;;;;;;;;;;5075632;28;20072;-57
2023/03/27 05:56:54;;;;;;;13.13;2.47;;;;;;;;;;5074047;28;20048;-56
2023/03/27 05:59:20;;;;;;;8.10;1.60;;;;;;;;;;5074150;28;20044;-56
2023/03/27 06:01:47;;;;;;;7.65;1.42;;;;;;;;;;5076286;28;20526;-57
2023/03/27 06:04:18;;;;;;;6.20;1.30;;;3.30;99.90;;;;;;5073987;28;20043;-56
2023/03/27 06:06:44;;;;;;;12.98;1.50;;;3.90;99.90;;;;;;5074634;28;20046;-56
2023/03/27 06:09:11;;;;;;;7.88;1.30;;;4.60;99.90;;;;;;5074908;28;20047;-56
2023/03/27 06:11:38;;;;;;;5.53;1.88;;;;;;;;;;5074331;28;22233;-56
2023/03/27 06:14:03;;;;;;;7.47;1.33;;;5.70;99.90;;;;;;5075435;28;20047;-57
2023/03/27 06:16:29;;;;;;;8.90;1.50;;;6.20;99.90;;;;;;5074518;28;20028;-56
2023/03/27 06:18:55;;;;;;;4.93;0.88;;;7.90;99.90;;;;;;5074008;28;20519;-57
2023/03/27 06:21:21;;;;;;;8.80;1.27;;;7.40;99.90;;;;;;5073781;28;20531;-56
2023/03/27 06:23:47;;;;;;;8.70;1.17;;;9.60;99.90;;;;;;5075111;28;20063;-56
2023/03/27 06:26:14;;;;;;;8.73;1.60;;;8.20;99.90;;;;;;5073463;28;20111;-56
2023/03/27 06:28:40;;;;;;;7.50;1.20;;;8.80;99.90;;;;;;5073467;28;21040;-56
2023/03/27 06:31:07;;;;;;;7.18;1.60;;;9.30;99.90;;;;;;5073767;28;20063;-56
2023/03/27 06:33:33;;;;;;;6.13;1.80;;;9.40;99.90;;;;;;5073568;28;20044;-57
2023/03/27 06:36:00;;;;;;;8.27;1.90;;;9.80;99.90;;;;;;5072914;28;20115;-56
2023/03/27 06:38:31;;;;;;;5.35;1.30;;;10.20;99.90;;;;;;5073504;28;20114;-57
2023/03/27 06:40:58;;;;;;;7.93;1.27;;;10.60;99.90;;;;;;5073206;28;20123;-56
2023/03/27 06:43:25;;;;;;;10.57;1.73;;;10.70;99.90;;;;;;5072925;28;20496;-56
2023/03/27 06:45:50;;;;;;;5.50;1.00;;;11.20;99.90;;;;;;5072857;28;20048;-55
2023/03/27 06:48:17;;;;;;;8.85;1.25;;;11.30;99.90;;;;;;5073491;28;20878;-56
2023/03/27 06:50:45;;;;;;;7.82;1.65;;;11.90;99.90;;;;;;5072670;28;20475;-56
2023/03/27 06:53:11;;;;;;;6.20;1.10;;;12.20;99.90;;;;;;5073288;28;20042;-57
2023/03/27 06:55:36;;;;;;;9.70;1.25;;;12.50;99.90;;;;;;5073208;28;20151;-56
2023/03/27 06:58:03;;;;;;;7.25;1.30;;;12.60;99.90;;;;;;5073473;28;20062;-57
2023/03/27 07:00:33;;;;;;;9.25;1.70;;;13.20;99.90;;;;;;5072883;28;20040;-56
2023/03/27 07:03:01;;;;;;;8.70;1.48;;;12.90;99.90;;;;;;5073215;28;20335;-56
2023/03/27 07:05:30;;;;;;;10.05;2.20;;;12.70;99.90;;;;;;5071832;28;20032;-56
2023/03/27 07:07:57;;;;;;;7.80;1.40;;;12.70;99.90;;;;;;5073158;28;20120;-55
2023/03/27 07:10:24;;;;;;;10.20;1.58;;;12.50;99.90;;;;;;5073761;28;20051;-56
2023/03/27 07:12:53;;;;;;;6.93;1.38;;;12.00;99.90;;;;;;5073321;28;20051;-56
2023/03/27 07:15:20;;;;;;;9.43;2.42;;;11.90;99.90;;;;;;5073649;28;20466;-56
2023/03/27 07:17:52;;;;;;;8.43;1.60;;;11.40;99.90;;;;;;5073242;28;20509;-56
2023/03/27 07:20:18;;;;;;;10.60;1.58;;;11.00;99.90;;;;;;5072565;28;20044;-56
2023/03/27 07:22:44;;;;;;;10.48;1.65;;;10.90;99.90;;;;;;5073027;28;21278;-56
2023/03/27 07:25:11;;;;;;;7.97;1.45;;;11.00;99.90;;;;;;5073631;28;20048;-57
2023/03/27 07:27:37;;;;;;;9.15;1.50;;;11.30;99.90;;;;;;5073311;28;20036;-57
2023/03/27 07:30:06;;;;;;;7.90;1.60;;;11.00;99.90;;;;;;5072556;28;20044;-56
2023/03/27 07:32:33;;;;;;;5.68;1.10;;;10.20;99.90;;;;;;5074770;28;20039;-55
2023/03/27 07:34:59;;;;;;;6.78;1.40;;;8.70;99.90;;;;;;5072259;28;20075;-55
2023/03/27 07:37:26;;;;;;;6.38;1.25;;;7.80;99.90;;;;;;5072370;28;20032;-56
2023/03/27 07:39:52;;;;;;;7.95;1.10;;;5.30;99.90;;;;;;5070985;28;20044;-55
2023/03/27 07:42:18;;;;;;;7.30;1.38;;;4.90;99.90;;;;;;5072882;28;20063;-56
2023/03/27 07:44:44;;;;;;;7.63;1.23;;;4.40;99.90;;;;;;5071730;28;20048;-56
2023/03/27 07:47:11;;;;;;;7.28;1.38;;;;;;;;;;5071192;28;20056;-56
2023/03/27 07:49:37;;;;;;;5.75;0.90;;;;;;;;;;5071266;28;20051;-55
2023/03/27 07:52:03;;;;;;;9.35;1.45;;;;;;;;;;5072660;28;20040;-55
2023/03/27 07:54:30;;;;;;;6.50;1.10;;;5.30;99.90;;;;;;5071918;28;20450;-55
2023/03/27 07:56:56;;;;;;;8.95;1.88;;;7.10;99.90;;;;;;5071844;28;21142;-54
2023/03/27 07:59:22;;;;;;;5.88;1.20;;;6.10;99.90;;;;;;5072352;28;20039;-53
2023/03/27 08:01:49;;;;;;;5.38;1.02;;;7.10;99.90;;;;;;5072379;28;20362;-55
2023/03/27 08:04:18;;;;;;;7.00;1.65;;;5.70;99.90;;;;;;5070856;28;20079;-55
2023/03/27 08:06:44;;;;;;;7.35;1.52;;;8.50;99.90;;;;;;5069608;28;20405;-55
2023/03/27 08:09:10;;;;;;;10.23;2.67;;;9.60;99.90;;;;;;5071706;28;20036;-55
2023/03/27 08:11:40;;;;;;;5.43;1.00;;;10.50;99.90;;;;;;5071552;28;20055;-56
2023/03/27 08:14:08;;;;;;;7.80;2.00;;;11.00;99.90;;;;;;5071405;28;20039;-56
2023/03/27 08:16:35;;;;;;;5.90;1.50;;;11.60;99.90;;;;;;5071415;28;20044;-56
2023/03/27 08:19:02;;;;;;;8.05;1.23;;;11.40;99.90;;;;;;5068567;28;20055;-56
2023/03/27 08:21:30;;;;;;;9.48;1.42;;;11.20;99.90;;;;;;5070262;28;20216;-56
2023/03/27 08:23:57;;;;;;;6.68;1.30;;;11.50;99.90;;;;;;5071112;28;20040;-56
2023/03/27 08:26:25;;;;;;;9.68;1.52;;;11.30;99.90;;;;;;5072536;28;20568;-56
2023/03/27 08:28:53;;;;;;;8.20;1.30;;;10.90;99.90;;;;;;5071165;28;20668;-57
2023/03/27 08:31:19;;;;;;;9.07;1.33;;;9.80;99.90;;;;;;5072079;28;20417;-56
2023/03/27 08:33:45;;;;;;;7.70;1.35;;;9.60;99.90;;;;;;5071655;28;20056;-57
2023/03/27 08:36:13;;;;;;;10.15;1.60;;;9.20;99.90;;;;;;5073104;28;20777;-55
2023/03/27 08:38:40;;;;;;;9.25;1.30;;;8.70;99.90;;;;;;5073002;28;20556;-57
2023/03/27 08:41:06;;;;;;;9.07;1.67;;;8.90;99.90;;;;;;5071905;28;20038;-56
2023/03/27 08:43:40;;;;;;;9.35;1.67;;;8.50;99.90;;;;;;5071971;28;20123;-57
2023/03/27 08:46:27;;;;;;;5.25;1.00;;;7.50;99.90;;;;;;5071541;28;20048;-57
2023/03/27 08:49:13;;;;;;;6.97;1.20;;;9.00;99.90;;;;;;5071161;28;20074;-57
2023/03/27 08:51:46;;;;;;;8.52;1.25;;;6.80;99.90;;;;;;5072701;28;20565;-57
2023/03/27 08:54:23;;;;;;;7.90;1.27;;;9.00;99.90;;;;;;5072069;28;20047;-58
2023/03/27 08:56:49;;;;;;;6.05;0.95;;;7.30;99.90;;;;;;5071976;28;20079;-57
2023/03/27 08:59:19;;;;;;;9.50;1.10;;;7.10;99.90;;;;;;5073510;28;20044;-57
2023/03/27 09:01:56;;;;;;;4.65;0.82;;;7.20;99.90;;;;;;5076637;28;20047;-56
2023/03/27 09:04:54;;;;;;;4.75;0.98;;;7.20;99.90;;;;;;5073715;28;20207;-56
2023/03/27 09:07:42;;;;;;;5.05;0.93;;;7.60;99.90;;;;;;5074934;28;20113;-57
2023/03/27 09:10:37;;;;;;;6.70;1.23;;;7.60;99.90;;;;;;5074770;28;20051;-56
2023/03/27 09:13:26;;;;;;;6.57;1.10;;;8.00;99.90;;;;;;5074672;28;20055;-57
2023/03/27 09:16:01;;;;;;;7.45;1.48;;;8.20;99.90;;;;;;5074115;28;20470;-55
2023/03/27 09:18:32;;;;;;;5.32;1.23;;;8.70;99.90;;;;;;5075385;28;20040;-57
2023/03/27 09:21:09;;;;;;;5.05;1.20;;;9.20;99.90;;;;;;5074955;28;20044;-57
2023/03/27 09:23:45;;;;;;;5.93;1.20;;;9.70;99.90;;;;;;5074542;28;20810;-57
2023/03/27 09:26:20;;;;;;;3.65;0.98;;;9.70;99.90;;;;;;5073841;28;20130;-56
2023/03/27 09:28:53;;;;;;;9.10;1.85;;;9.30;99.90;;;;;;5073643;28;20067;-57
2023/03/27 09:31:23;;;;;;;6.28;0.95;;;9.70;99.90;;;;;;5075754;28;20071;-57
2023/03/27 09:33:49;;;;;;;14.90;2.15;;;10.30;99.90;;;;;;5073968;28;20129;-56
2023/03/27 09:36:16;;;;;;;8.25;1.38;;;9.70;99.90;;;;;;5074280;28;20036;-57
2023/03/27 09:38:45;;;;;;;11.40;1.15;;;8.80;99.90;;;;;;5074580;28;20079;-57
2023/03/27 09:41:17;;;;;;;8.02;1.15;;;9.00;99.90;;;;;;5075052;28;20091;-57
2023/03/27 09:44:14;;;;;;;6.18;1.20;;;9.70;99.90;;;;;;5075462;28;20043;-57
2023/03/27 09:46:44;;;;;;;6.50;1.30;;;9.20;99.90;;;;;;5073595;28;20797;-57
2023/03/27 09:49:10;;;;;;;8.32;1.17;;;8.60;99.90;;;;;;5073804;28;20200;-56
2023/03/27 09:51:45;;;;;;;7.68;1.42;;;8.20;99.90;;;;;;5075245;28;20036;-56
2023/03/27 09:54:13;;;;;;;6.85;1.02;;;7.50;99.90;;;;;;5073957;28;20039;-56
2023/03/27 09:56:45;;;;;;;12.60;1.00;;;7.30;99.90;;;;;;5073178;28;20188;-57
2023/03/27 09:59:24;;;;;;;7.72;1.08;;;7.10;99.90;;;;;;5074015;28;20810;-57
2023/03/27 10:01:54;;;;;;;7.10;1.00;;;7.10;99.90;;;;;;5074824;28;20438;-56
2023/03/27 10:04:23;;;;;;;8.93;0.90;;;7.50;99.90;;;;;;5074013;28;20051;-57
2023/03/27 10:07:00;;;;;;;9.00;1.30;;;7.80;99.90;;;;;;5072758;28;20044;-57
2023/03/27 10:09:31;;;;;;;5.15;1.10;;;8.10;99.90;;;;;;5073429;28;20036;-57
2023/03/27 10:12:20;;;;;;;3.60;0.80;;;8.30;99.90;;;;;;5074287;28;20091;-57
2023/03/27 10:14:50;;;;;;;9.18;1.40;;;8.20;99.90;;;;;;5065925;28;20059;-57
2023/03/27 10:17:26;;;;;;;5.82;0.77;;;8.20;99.90;;;;;;5072706;28;20067;-57
2023/03/27 10:19:59;;;;;;;5.07;0.85;;;7.40;99.90;;;;;;5073073;28;20040;-56
2023/03/27 10:22:36;;;;;;;2.95;0.85;;;7.40;99.90;;;;;;5073596;28;20044;-57
2023/03/27 10:25:13;;;;;;;6.38;1.05;;;7.90;99.90;;;;;;5071810;28;20044;-56
2023/03/27 10:27:42;;;;;;;7.10;1.20;;;7.90;99.90;;;;;;5072365;28;20044;-57
2023/03/27 10:30:34;;;;;;;9.15;0.88;;;8.30;99.90;;;;;;5071728;28;20370;-56
2023/03/27 10:33:00;;;;;;;9.77;1.30;;;8.30;99.90;;;;;;5072544;28;21095;-56
2023/03/27 10:35:33;;;;;;;7.85;1.85;;;8.00;99.90;;;;;;5071297;28;20302;-57
2023/03/27 10:38:00;;;;;;;7.18;1.00;;;8.00;99.90;;;;;;5071416;28;20062;-57
2023/03/27 10:40:32;;;;;;;6.28;1.13;;;8.30;99.90;;;;;;5071517;28;20175;-57
2023/03/27 10:43:03;;;;;;;9.18;1.30;;;8.60;99.90;;;;;;5073073;28;20043;-57
2023/03/27 10:45:30;;;;;;;6.95;1.02;;;8.60;99.90;;;;;;5072585;28;20047;-57
2023/03/27 10:47:59;;;;;;;7.07;1.23;;;8.40;99.90;;;;;;5073102;28;20043;-57
2023/03/27 10:50:41;;;;;;;7.63;1.10;;;8.60;99.90;;;;;;5070957;28;20112;-57
2023/03/27 10:53:25;;;;;;;7.03;0.80;;;8.80;99.90;;;;;;5070398;28;20064;-57
2023/03/27 10:56:07;;;;;;;3.92;0.70;;;9.00;99.90;;;;;;5071011;28;20032;-56
2023/03/27 10:58:52;;;;;;;6.25;0.90;;;9.00;99.90;;;;;;5071852;28;20048;-57
2023/03/27 11:01:34;;;;;;;4.63;0.75;;;9.40;99.90;;;;;;5072038;28;20044;-57
2023/03/27 11:04:17;;;;;;;7.07;1.60;;;9.40;99.90;;;;;;5074176;28;20039;-57
2023/03/27 11:06:46;;;;;;;5.70;0.88;;;8.80;99.90;;;;;;5073623;28;20537;-57
2023/03/27 11:09:28;;;;;;;7.65;1.10;;;8.80;99.90;;;;;;5073773;28;20047;-57
2023/03/27 11:12:13;;;;;;;6.72;0.93;;;8.80;99.90;;;;;;5073716;28;20047;-57
2023/03/27 11:14:52;;;;;;;5.80;1.48;;;8.80;99.90;;;;;;5074660;28;20090;-57
2023/03/27 11:17:26;;;;;;;7.80;0.90;;;7.10;99.90;;;;;;5074256;28;20028;-57
2023/03/27 11:20:05;;;;;;;7.95;1.25;;;7.00;99.90;;;;;;5073278;28;20443;-57
2023/03/27 11:22:45;;;;;;;7.70;1.30;;;7.10;99.90;;;;;;5073718;28;20075;-57
2023/03/27 11:25:26;;;;;;;5.90;0.90;;;7.30;99.90;;;;;;5073186;28;20067;-56
2023/03/27 11:27:58;;;;;;;5.60;0.75;;;7.10;99.90;;;;;;5074336;28;20063;-57
2023/03/27 11:30:45;;;;;;;5.15;0.98;;;7.40;99.90;;;;;;5073665;28;20055;-57
2023/03/27 11:33:31;;;;;;;7.63;1.02;;;7.70;99.90;;;;;;5075119;28;20040;-57
2023/03/27 11:36:20;;;;;;;5.15;1.33;;;8.00;99.90;;;;;;5074104;28;20084;-57
2023/03/27 11:39:05;;;;;;;6.25;0.90;;;8.10;99.90;;;;;;5062562;28;20101;-57
2023/03/27 11:41:31;;;;;;;15.75;2.63;;;8.20;99.90;;;;;;5072731;28;20132;-57
2023/03/27 11:43:57;;;;;;;8.60;1.10;;;7.80;99.90;;;;;;5072879;28;20133;-56
2023/03/27 11:47:02;;;;;;;8.85;1.50;;;7.90;99.90;;;;;;5072291;28;20036;-57
2023/03/27 11:49:41;;;;;;;4.20;0.77;;;8.30;99.90;;;;;;5072653;28;20051;-57
2023/03/27 11:52:43;;;;;;;9.68;1.50;;;8.30;99.90;;;;;;5072372;28;20365;-57
2023/03/27 11:55:57;;;;;;;4.55;1.15;;;8.40;99.90;;;;;;5072035;28;20044;-56
2023/03/27 11:58:30;;;;;;;6.22;1.00;;;8.60;99.90;;;;;;5011931;28;20709;-57
2023/03/27 12:01:14;;;;;;;8.68;1.30;;;8.20;99.90;;;;;;5069255;28;20052;-57
2023/03/27 12:04:10;;;;;;;6.18;1.10;;;7.90;99.90;;;;;;5072835;28;20048;-57
2023/03/27 12:06:45;;;;;;;10.82;1.10;;;7.80;99.90;;;;;;5072570;28;20430;-57
2023/03/27 12:09:39;;;;;;;7.95;1.10;;;8.20;99.90;;;;;;5073433;28;20040;-57
2023/03/27 12:12:29;;;;;;;7.05;0.95;;;8.30;99.90;;;;;;5071859;28;20134;-57
2023/03/27 12:15:26;;;;;;;10.27;1.15;;;8.50;99.90;;;;;;5071727;28;20502;-57
2023/03/27 12:18:04;;;;;;;4.95;1.02;;;8.30;99.90;;;;;;5071914;28;20175;-57
2023/03/27 12:21:01;;;;;;;6.43;0.98;;;8.20;99.90;;;;;;5073233;28;20036;-57
2023/03/27 12:23:38;;;;;;;11.98;1.20;;;8.40;99.90;;;;;;5071750;28;20076;-57
2023/03/27 12:26:42;;;;;;;14.27;1.90;;;7.70;99.90;;;;;;5071674;28;20082;-57
2023/03/27 12:29:19;;;;;;;10.73;1.45;;;8.40;99.90;;;;;;5071602;28;20052;-56
2023/03/27 12:32:04;;;;;;;10.05;1.42;;;8.60;99.90;;;;;;5072055;28;20121;-57
2023/03/27 12:34:49;;;;;;;6.88;1.20;;;8.30;99.90;;;;;;5076975;28;20044;-57
2023/03/27 12:37:18;;;;;;;7.93;1.33;;;8.30;99.90;;;;;;5077487;28;20127;-57
2023/03/27 12:39:58;;;;;;;6.88;1.27;;;8.20;99.90;;;;;;5076740;28;20086;-57
2023/03/27 12:43:02;;;;;;;3.95;1.00;;;8.50;99.90;;;;;;5077495;28;20723;-57
2023/03/27 12:45:27;;;;;;;3.38;0.68;;;8.30;99.90;;;;;;5073613;28;20181;-57
2023/03/27 12:48:16;;;;;;;5.18;1.33;;;8.10;99.90;;;;;;5076638;28;20795;-57
2023/03/27 12:50:51;;;;;;;6.57;1.10;;;7.90;99.90;;;;;;5077813;28;20273;-57
2023/03/27 12:53:26;;;;;;;7.20;1.35;;;7.80;99.90;;;;;;5076900;28;20562;-57
2023/03/27 12:56:23;;;;;;;6.30;1.20;;;7.70;99.90;;;;;;5076523;28;20036;-57
2023/03/27 12:58:53;;;;;;;8.32;1.13;;;7.80;99.90;;;;;;5078006;28;20044;-57
2023/03/27 13:01:41;;;;;;;5.72;1.10;;;7.50;99.90;;;;;;5076929;28;20093;-57
2023/03/27 13:04:26;;;;;;;5.28;1.02;;;7.80;99.90;;;;;;5075430;28;20056;-58
2023/03/27 13:06:51;;;;;;;8.32;1.10;;;7.80;99.90;;;;;;5076332;28;20097;-58
2023/03/27 13:09:24;;;;;;;7.88;1.15;;;7.80;99.90;;;;;;5076357;28;20047;-57
2023/03/27 13:12:15;;;;;;;7.07;1.00;;;8.00;99.90;;;;;;5075654;28;20101;-57
2023/03/27 13:15:05;;;;;;;6.75;1.48;;;8.10;99.90;;;;;;5075601;28;20148;-57
2023/03/27 13:17:36;;;;;;;9.05;1.70;;;8.10;99.90;;;;;;5071775;28;20412;-57
2023/03/27 13:20:38;;;;;;;9.13;1.40;;;8.00;99.90;;;;;;5075436;28;20047;-57
2023/03/27 13:23:35;;;;;;;11.60;1.40;;;8.30;99.90;;;;;;5069419;28;20058;-57
2023/03/27 13:26:59;;;;;;;9.77;1.60;;;8.60;99.90;;;;;;5075357;28;20044;-57
2023/03/27 13:29:29;;;;;;;10.95;1.55;;;8.70;99.90;;;;;;5065924;28;20148;-58
2023/03/27 13:32:00;;;;;;;8.60;1.75;;;9.20;99.90;;;;;;5074706;28;20078;-58
2023/03/27 13:34:26;;;;;;;11.52;2.22;;;9.30;99.90;;;;;;5073946;28;20052;-57
2023/03/27 13:37:15;;;;;;;12.90;2.22;;;9.10;99.90;;;;;;5075558;28;20036;-57
2023/03/27 13:39:57;;;;;;;5.28;1.35;;;8.90;99.90;;;;;;5075268;28;20132;-58
2023/03/27 13:42:40;;;;;;;10.77;2.17;;;8.10;99.90;;;;;;5076116;28;20044;-58
2023/03/27 13:45:13;;;;;;;13.70;1.80;;;8.00;99.90;;;;;;5073493;28;20048;-58
2023/03/27 13:47:59;;;;;;;12.25;1.50;;;7.70;99.90;;;;;;5056766;28;20043;-58